sensor_id;sensor_type;location;lat;lon;timestamp;P1;durP1;ratioP1;P2;durP2;ratioP2
52494;SDS011;38405;53.212;5.660;2023-06-10T00:01:50;12.20;;;6.53;;
52494;SDS011;38405;53.212;5.660;2023-06-10T00:04:16;12.05;;;6.80;;
52494;SDS011;38405;53.212;5.660;2023-06-10T00:06:45;9.88;;;6.70;;
52494;SDS011;38405;53.212;5.660;2023-06-10T00:09:13;12.93;;;6.85;;
52494;SDS011;38405;53.212;5.660;2023-06-10T00:11:39;7.85;;;6.07;;
52494;SDS011;38405;53.212;5.660;2023-06-10T00:14:06;10.20;;;6.03;;
52494;SDS011;38405;53.212;5.660;2023-06-10T00:16:32;10.32;;;5.97;;
52494;SDS011;38405;53.212;5.660;2023-06-10T00:19:01;17.15;;;6.13;;
52494;SDS011;38405;53.212;5.660;2023-06-10T00:21:29;10.32;;;6.32;;
52494;SDS011;38405;53.212;5.660;2023-06-10T00:23:55;12.32;;;6.90;;
52494;SDS011;38405;53.212;5.660;2023-06-10T00:26:22;12.20;;;6.28;;
52494;SDS011;38405;53.212;5.660;2023-06-10T00:28:48;11.40;;;6.38;;
52494;SDS011;38405;53.212;5.660;2023-06-10T00:31:14;12.93;;;6.30;;
52494;SDS011;38405;53.212;5.660;2023-06-10T00:33:40;10.50;;;6.32;;
52494;SDS011;38405;53.212;5.660;2023-06-10T00:36:06;9.00;;;6.22;;
52494;SDS011;38405;53.212;5.660;2023-06-10T00:38:32;11.93;;;6.07;;
52494;SDS011;38405;53.212;5.660;2023-06-10T00:40:58;10.27;;;6.20;;
52494;SDS011;38405;53.212;5.660;2023-06-10T00:43:24;10.93;;;6.20;;
52494;SDS011;38405;53.212;5.660;2023-06-10T00:45:49;13.35;;;6.43;;
52494;SDS011;38405;53.212;5.660;2023-06-10T00:48:16;12.55;;;6.43;;
52494;SDS011;38405;53.212;5.660;2023-06-10T00:50:43;10.80;;;6.75;;
52494;SDS011;38405;53.212;5.660;2023-06-10T00:53:11;9.68;;;6.38;;
52494;SDS011;38405;53.212;5.660;2023-06-10T00:55:38;12.23;;;6.20;;
52494;SDS011;38405;53.212;5.660;2023-06-10T00:58:04;11.30;;;6.07;;
52494;SDS011;38405;53.212;5.660;2023-06-10T01:00:30;9.85;;;6.32;;
52494;SDS011;38405;53.212;5.660;2023-06-10T01:02:56;11.07;;;6.45;;
52494;SDS011;38405;53.212;5.660;2023-06-10T01:05:22;10.10;;;6.55;;
52494;SDS011;38405;53.212;5.660;2023-06-10T01:13:29;9.93;;;6.60;;
52494;SDS011;38405;53.212;5.660;2023-06-10T01:15:57;9.63;;;6.07;;
52494;SDS011;38405;53.212;5.660;2023-06-10T01:18:23;7.50;;;5.78;;
52494;SDS011;38405;53.212;5.660;2023-06-10T01:20:55;10.50;;;6.43;;
52494;SDS011;38405;53.212;5.660;2023-06-10T01:23:21;12.30;;;6.82;;
52494;SDS011;38405;53.212;5.660;2023-06-10T01:25:47;10.55;;;6.50;;
52494;SDS011;38405;53.212;5.660;2023-06-10T01:34:01;10.32;;;6.68;;
52494;SDS011;38405;53.212;5.660;2023-06-10T01:36:31;11.13;;;6.00;;
52494;SDS011;38405;53.212;5.660;2023-06-10T01:38:58;13.38;;;6.35;;
52494;SDS011;38405;53.212;5.660;2023-06-10T01:41:25;8.93;;;6.47;;
52494;SDS011;38405;53.212;5.660;2023-06-10T01:46:24;8.32;;;6.45;;
52494;SDS011;38405;53.212;5.660;2023-06-10T01:48:50;10.77;;;6.80;;
52494;SDS011;38405;53.212;5.660;2023-06-10T01:51:15;11.50;;;6.60;;
52494;SDS011;38405;53.212;5.660;2023-06-10T01:53:41;10.77;;;6.88;;
52494;SDS011;38405;53.212;5.660;2023-06-10T01:56:07;16.70;;;7.10;;
52494;SDS011;38405;53.212;5.660;2023-06-10T01:58:33;8.63;;;6.53;;
52494;SDS011;38405;53.212;5.660;2023-06-10T02:00:58;16.08;;;6.88;;
52494;SDS011;38405;53.212;5.660;2023-06-10T02:03:24;11.13;;;6.43;;
52494;SDS011;38405;53.212;5.660;2023-06-10T02:05:49;11.13;;;6.30;;
52494;SDS011;38405;53.212;5.660;2023-06-10T02:08:15;8.93;;;6.32;;
52494;SDS011;38405;53.212;5.660;2023-06-10T02:10:41;15.45;;;7.00;;
52494;SDS011;38405;53.212;5.660;2023-06-10T02:13:12;11.00;;;6.40;;
52494;SDS011;38405;53.212;5.660;2023-06-10T02:15:38;10.85;;;7.18;;
52494;SDS011;38405;53.212;5.660;2023-06-10T02:18:03;8.57;;;5.88;;
52494;SDS011;38405;53.212;5.660;2023-06-10T02:20:29;12.07;;;6.43;;
52494;SDS011;38405;53.212;5.660;2023-06-10T02:22:54;9.02;;;6.45;;
52494;SDS011;38405;53.212;5.660;2023-06-10T02:25:20;8.35;;;6.25;;
52494;SDS011;38405;53.212;5.660;2023-06-10T02:27:46;12.90;;;7.13;;
52494;SDS011;38405;53.212;5.660;2023-06-10T02:30:11;9.75;;;6.35;;
52494;SDS011;38405;53.212;5.660;2023-06-10T02:32:38;8.43;;;6.93;;
52494;SDS011;38405;53.212;5.660;2023-06-10T02:35:04;16.77;;;6.25;;
52494;SDS011;38405;53.212;5.660;2023-06-10T02:37:30;10.70;;;6.55;;
52494;SDS011;38405;53.212;5.660;2023-06-10T02:39:56;12.10;;;6.95;;
52494;SDS011;38405;53.212;5.660;2023-06-10T02:42:21;11.77;;;7.07;;
52494;SDS011;38405;53.212;5.660;2023-06-10T02:44:47;11.52;;;6.75;;
52494;SDS011;38405;53.212;5.660;2023-06-10T02:47:12;14.73;;;7.28;;
52494;SDS011;38405;53.212;5.660;2023-06-10T02:49:38;14.40;;;7.25;;
52494;SDS011;38405;53.212;5.660;2023-06-10T02:52:05;14.25;;;7.60;;
52494;SDS011;38405;53.212;5.660;2023-06-10T02:54:34;10.13;;;6.75;;
52494;SDS011;38405;53.212;5.660;2023-06-10T02:57:00;13.85;;;6.85;;
52494;SDS011;38405;53.212;5.660;2023-06-10T02:59:26;10.57;;;7.35;;
52494;SDS011;38405;53.212;5.660;2023-06-10T03:01:53;12.38;;;7.35;;
52494;SDS011;38405;53.212;5.660;2023-06-10T03:04:19;12.32;;;6.55;;
52494;SDS011;38405;53.212;5.660;2023-06-10T03:06:45;12.27;;;7.53;;
52494;SDS011;38405;53.212;5.660;2023-06-10T03:09:11;10.85;;;6.90;;
52494;SDS011;38405;53.212;5.660;2023-06-10T03:11:38;12.55;;;6.25;;
52494;SDS011;38405;53.212;5.660;2023-06-10T03:14:04;12.25;;;7.10;;
52494;SDS011;38405;53.212;5.660;2023-06-10T03:16:30;14.75;;;7.18;;
52494;SDS011;38405;53.212;5.660;2023-06-10T03:18:56;13.25;;;7.43;;
52494;SDS011;38405;53.212;5.660;2023-06-10T03:21:22;11.75;;;6.97;;
52494;SDS011;38405;53.212;5.660;2023-06-10T03:23:48;13.48;;;7.15;;
52494;SDS011;38405;53.212;5.660;2023-06-10T03:26:13;12.45;;;6.85;;
52494;SDS011;38405;53.212;5.660;2023-06-10T03:28:40;13.40;;;7.53;;
52494;SDS011;38405;53.212;5.660;2023-06-10T03:31:06;14.30;;;7.28;;
52494;SDS011;38405;53.212;5.660;2023-06-10T03:33:32;12.80;;;6.90;;
52494;SDS011;38405;53.212;5.660;2023-06-10T03:35:58;11.52;;;7.20;;
52494;SDS011;38405;53.212;5.660;2023-06-10T03:38:23;17.40;;;8.05;;
52494;SDS011;38405;53.212;5.660;2023-06-10T03:40:49;10.80;;;6.43;;
52494;SDS011;38405;53.212;5.660;2023-06-10T03:43:15;12.02;;;7.50;;
52494;SDS011;38405;53.212;5.660;2023-06-10T03:45:41;10.73;;;6.88;;
52494;SDS011;38405;53.212;5.660;2023-06-10T03:48:07;11.95;;;7.30;;
52494;SDS011;38405;53.212;5.660;2023-06-10T03:50:33;12.95;;;6.97;;
52494;SDS011;38405;53.212;5.660;2023-06-10T03:53:00;10.45;;;6.50;;
52494;SDS011;38405;53.212;5.660;2023-06-10T03:55:26;11.25;;;6.85;;
52494;SDS011;38405;53.212;5.660;2023-06-10T03:57:52;22.92;;;7.00;;
52494;SDS011;38405;53.212;5.660;2023-06-10T04:00:18;13.27;;;6.85;;
52494;SDS011;38405;53.212;5.660;2023-06-10T04:02:46;14.90;;;7.43;;
52494;SDS011;38405;53.212;5.660;2023-06-10T04:05:14;10.98;;;6.40;;
52494;SDS011;38405;53.212;5.660;2023-06-10T04:07:43;11.98;;;6.60;;
52494;SDS011;38405;53.212;5.660;2023-06-10T04:10:12;11.23;;;7.05;;
52494;SDS011;38405;53.212;5.660;2023-06-10T04:12:37;10.55;;;6.13;;
52494;SDS011;38405;53.212;5.660;2023-06-10T04:15:04;9.93;;;6.68;;
52494;SDS011;38405;53.212;5.660;2023-06-10T04:17:30;13.27;;;6.75;;
52494;SDS011;38405;53.212;5.660;2023-06-10T04:19:56;8.70;;;6.63;;
52494;SDS011;38405;53.212;5.660;2023-06-10T04:22:21;12.27;;;6.20;;
52494;SDS011;38405;53.212;5.660;2023-06-10T04:24:48;11.95;;;6.35;;
52494;SDS011;38405;53.212;5.660;2023-06-10T04:27:13;12.70;;;5.95;;
52494;SDS011;38405;53.212;5.660;2023-06-10T04:29:39;11.68;;;6.00;;
52494;SDS011;38405;53.212;5.660;2023-06-10T04:32:05;11.25;;;6.05;;
52494;SDS011;38405;53.212;5.660;2023-06-10T04:34:32;7.32;;;5.22;;
52494;SDS011;38405;53.212;5.660;2023-06-10T04:36:58;10.38;;;5.63;;
52494;SDS011;38405;53.212;5.660;2023-06-10T04:39:24;9.85;;;5.68;;
52494;SDS011;38405;53.212;5.660;2023-06-10T04:41:50;7.32;;;5.35;;
52494;SDS011;38405;53.212;5.660;2023-06-10T04:44:15;10.18;;;5.25;;
52494;SDS011;38405;53.212;5.660;2023-06-10T04:46:41;9.65;;;5.22;;
52494;SDS011;38405;53.212;5.660;2023-06-10T04:49:06;7.03;;;5.03;;
52494;SDS011;38405;53.212;5.660;2023-06-10T04:51:32;8.38;;;5.25;;
52494;SDS011;38405;53.212;5.660;2023-06-10T04:53:58;10.40;;;5.85;;
52494;SDS011;38405;53.212;5.660;2023-06-10T04:56:27;11.15;;;5.45;;
52494;SDS011;38405;53.212;5.660;2023-06-10T04:58:53;12.65;;;5.03;;
52494;SDS011;38405;53.212;5.660;2023-06-10T05:01:19;7.80;;;5.03;;
52494;SDS011;38405;53.212;5.660;2023-06-10T05:03:45;12.52;;;5.60;;
52494;SDS011;38405;53.212;5.660;2023-06-10T05:06:10;7.85;;;5.75;;
52494;SDS011;38405;53.212;5.660;2023-06-10T05:08:36;10.55;;;5.30;;
52494;SDS011;38405;53.212;5.660;2023-06-10T05:11:01;9.15;;;4.95;;
52494;SDS011;38405;53.212;5.660;2023-06-10T05:13:27;8.23;;;5.10;;
52494;SDS011;38405;53.212;5.660;2023-06-10T05:15:53;6.38;;;4.60;;
52494;SDS011;38405;53.212;5.660;2023-06-10T05:18:18;9.00;;;5.43;;
52494;SDS011;38405;53.212;5.660;2023-06-10T05:20:44;7.47;;;5.22;;
52494;SDS011;38405;53.212;5.660;2023-06-10T05:23:10;9.38;;;5.00;;
52494;SDS011;38405;53.212;5.660;2023-06-10T05:25:36;15.18;;;5.60;;
52494;SDS011;38405;53.212;5.660;2023-06-10T05:28:01;9.55;;;5.35;;
52494;SDS011;38405;53.212;5.660;2023-06-10T05:30:27;10.98;;;5.28;;
52494;SDS011;38405;53.212;5.660;2023-06-10T05:32:53;9.07;;;5.43;;
52494;SDS011;38405;53.212;5.660;2023-06-10T05:35:19;18.25;;;6.38;;
52494;SDS011;38405;53.212;5.660;2023-06-10T05:37:44;13.57;;;5.78;;
52494;SDS011;38405;53.212;5.660;2023-06-10T05:40:10;9.93;;;5.70;;
52494;SDS011;38405;53.212;5.660;2023-06-10T05:42:36;9.07;;;5.03;;
52494;SDS011;38405;53.212;5.660;2023-06-10T05:45:02;11.98;;;5.40;;
52494;SDS011;38405;53.212;5.660;2023-06-10T05:47:28;13.48;;;5.03;;
52494;SDS011;38405;53.212;5.660;2023-06-10T05:49:54;10.32;;;5.47;;
52494;SDS011;38405;53.212;5.660;2023-06-10T05:52:20;14.82;;;5.00;;
52494;SDS011;38405;53.212;5.660;2023-06-10T05:54:45;7.88;;;5.18;;
52494;SDS011;38405;53.212;5.660;2023-06-10T05:57:14;9.02;;;5.32;;
52494;SDS011;38405;53.212;5.660;2023-06-10T05:59:39;12.38;;;5.47;;
52494;SDS011;38405;53.212;5.660;2023-06-10T06:02:05;8.43;;;5.05;;
52494;SDS011;38405;53.212;5.660;2023-06-10T06:04:31;10.20;;;5.30;;
52494;SDS011;38405;53.212;5.660;2023-06-10T06:06:57;9.90;;;5.03;;
52494;SDS011;38405;53.212;5.660;2023-06-10T06:09:22;13.90;;;5.20;;
52494;SDS011;38405;53.212;5.660;2023-06-10T06:11:48;11.05;;;5.75;;
52494;SDS011;38405;53.212;5.660;2023-06-10T06:14:14;9.48;;;5.45;;
52494;SDS011;38405;53.212;5.660;2023-06-10T06:16:39;9.07;;;5.10;;
52494;SDS011;38405;53.212;5.660;2023-06-10T06:19:05;9.85;;;4.95;;
52494;SDS011;38405;53.212;5.660;2023-06-10T06:21:31;8.88;;;4.70;;
52494;SDS011;38405;53.212;5.660;2023-06-10T06:23:56;6.97;;;4.68;;
52494;SDS011;38405;53.212;5.660;2023-06-10T06:26:24;6.97;;;4.97;;
52494;SDS011;38405;53.212;5.660;2023-06-10T06:28:50;12.55;;;5.03;;
52494;SDS011;38405;53.212;5.660;2023-06-10T06:31:17;10.13;;;4.60;;
52494;SDS011;38405;53.212;5.660;2023-06-10T06:33:42;8.25;;;4.75;;
52494;SDS011;38405;53.212;5.660;2023-06-10T06:36:08;7.43;;;4.50;;
52494;SDS011;38405;53.212;5.660;2023-06-10T06:38:34;8.93;;;4.70;;
52494;SDS011;38405;53.212;5.660;2023-06-10T06:41:00;10.15;;;4.65;;
52494;SDS011;38405;53.212;5.660;2023-06-10T06:43:31;10.52;;;4.68;;
52494;SDS011;38405;53.212;5.660;2023-06-10T06:45:57;9.07;;;4.22;;
52494;SDS011;38405;53.212;5.660;2023-06-10T06:48:23;7.95;;;4.65;;
52494;SDS011;38405;53.212;5.660;2023-06-10T06:50:48;7.80;;;4.65;;
52494;SDS011;38405;53.212;5.660;2023-06-10T06:53:14;8.43;;;4.30;;
52494;SDS011;38405;53.212;5.660;2023-06-10T06:55:40;8.80;;;4.65;;
52494;SDS011;38405;53.212;5.660;2023-06-10T06:58:06;7.80;;;4.07;;
52494;SDS011;38405;53.212;5.660;2023-06-10T07:00:31;6.95;;;3.92;;
52494;SDS011;38405;53.212;5.660;2023-06-10T07:02:57;9.40;;;4.72;;
52494;SDS011;38405;53.212;5.660;2023-06-10T07:05:23;7.57;;;4.38;;
52494;SDS011;38405;53.212;5.660;2023-06-10T07:07:52;20.00;;;4.63;;
52494;SDS011;38405;53.212;5.660;2023-06-10T07:10:23;4.65;;;3.50;;
52494;SDS011;38405;53.212;5.660;2023-06-10T07:12:49;6.20;;;4.07;;
52494;SDS011;38405;53.212;5.660;2023-06-10T07:15:15;7.65;;;4.22;;
52494;SDS011;38405;53.212;5.660;2023-06-10T07:17:41;8.95;;;3.55;;
52494;SDS011;38405;53.212;5.660;2023-06-10T07:20:07;5.78;;;3.80;;
52494;SDS011;38405;53.212;5.660;2023-06-10T07:22:33;6.68;;;3.78;;
52494;SDS011;38405;53.212;5.660;2023-06-10T07:24:59;7.30;;;4.20;;
52494;SDS011;38405;53.212;5.660;2023-06-10T07:27:24;6.03;;;4.20;;
52494;SDS011;38405;53.212;5.660;2023-06-10T07:29:50;7.65;;;3.97;;
52494;SDS011;38405;53.212;5.660;2023-06-10T07:32:16;7.10;;;4.10;;
52494;SDS011;38405;53.212;5.660;2023-06-10T07:34:42;6.03;;;3.67;;
52494;SDS011;38405;53.212;5.660;2023-06-10T07:37:08;5.80;;;3.63;;
52494;SDS011;38405;53.212;5.660;2023-06-10T07:39:34;6.63;;;3.92;;
52494;SDS011;38405;53.212;5.660;2023-06-10T07:42:00;5.53;;;3.53;;
52494;SDS011;38405;53.212;5.660;2023-06-10T07:44:26;7.75;;;3.83;;
52494;SDS011;38405;53.212;5.660;2023-06-10T07:46:51;6.10;;;4.00;;
52494;SDS011;38405;53.212;5.660;2023-06-10T07:49:17;6.65;;;3.72;;
52494;SDS011;38405;53.212;5.660;2023-06-10T07:51:43;6.63;;;3.50;;
52494;SDS011;38405;53.212;5.660;2023-06-10T07:54:08;8.25;;;3.53;;
52494;SDS011;38405;53.212;5.660;2023-06-10T07:56:34;8.57;;;4.18;;
52494;SDS011;38405;53.212;5.660;2023-06-10T07:59:00;5.35;;;3.15;;
52494;SDS011;38405;53.212;5.660;2023-06-10T08:01:25;8.10;;;3.80;;
52494;SDS011;38405;53.212;5.660;2023-06-10T08:03:51;7.65;;;3.70;;
52494;SDS011;38405;53.212;5.660;2023-06-10T08:06:16;9.27;;;4.03;;
52494;SDS011;38405;53.212;5.660;2023-06-10T08:08:42;9.10;;;3.67;;
52494;SDS011;38405;53.212;5.660;2023-06-10T08:11:10;7.13;;;3.60;;
52494;SDS011;38405;53.212;5.660;2023-06-10T08:13:36;11.52;;;3.67;;
52494;SDS011;38405;53.212;5.660;2023-06-10T08:16:02;12.50;;;3.88;;
52494;SDS011;38405;53.212;5.660;2023-06-10T08:18:28;10.93;;;4.28;;
52494;SDS011;38405;53.212;5.660;2023-06-10T08:20:54;9.70;;;4.18;;
52494;SDS011;38405;53.212;5.660;2023-06-10T08:23:20;8.25;;;3.47;;
52494;SDS011;38405;53.212;5.660;2023-06-10T08:25:46;9.48;;;3.67;;
52494;SDS011;38405;53.212;5.660;2023-06-10T08:28:11;7.22;;;3.65;;
52494;SDS011;38405;53.212;5.660;2023-06-10T08:30:37;5.97;;;3.30;;
52494;SDS011;38405;53.212;5.660;2023-06-10T08:33:03;8.23;;;3.92;;
52494;SDS011;38405;53.212;5.660;2023-06-10T08:35:28;11.77;;;3.63;;
52494;SDS011;38405;53.212;5.660;2023-06-10T08:37:54;9.00;;;3.42;;
52494;SDS011;38405;53.212;5.660;2023-06-10T08:40:20;5.95;;;3.70;;
52494;SDS011;38405;53.212;5.660;2023-06-10T08:42:51;4.90;;;3.15;;
52494;SDS011;38405;53.212;5.660;2023-06-10T08:45:25;7.05;;;3.58;;
52494;SDS011;38405;53.212;5.660;2023-06-10T08:47:54;5.85;;;3.35;;
52494;SDS011;38405;53.212;5.660;2023-06-10T08:50:24;5.75;;;3.30;;
52494;SDS011;38405;53.212;5.660;2023-06-10T08:52:53;10.18;;;3.90;;
52494;SDS011;38405;53.212;5.660;2023-06-10T08:55:27;5.53;;;3.20;;
52494;SDS011;38405;53.212;5.660;2023-06-10T08:57:57;6.38;;;3.42;;
52494;SDS011;38405;53.212;5.660;2023-06-10T09:00:26;4.55;;;3.25;;
52494;SDS011;38405;53.212;5.660;2023-06-10T09:02:53;8.85;;;3.13;;
52494;SDS011;38405;53.212;5.660;2023-06-10T09:05:19;4.75;;;3.00;;
52494;SDS011;38405;53.212;5.660;2023-06-10T09:07:45;9.38;;;3.45;;
52494;SDS011;38405;53.212;5.660;2023-06-10T09:10:12;7.45;;;2.70;;
52494;SDS011;38405;53.212;5.660;2023-06-10T09:12:38;5.35;;;3.10;;
52494;SDS011;38405;53.212;5.660;2023-06-10T09:15:04;3.95;;;3.03;;
52494;SDS011;38405;53.212;5.660;2023-06-10T09:17:31;5.05;;;3.20;;
52494;SDS011;38405;53.212;5.660;2023-06-10T09:19:57;6.63;;;3.45;;
52494;SDS011;38405;53.212;5.660;2023-06-10T09:22:24;5.97;;;3.15;;
52494;SDS011;38405;53.212;5.660;2023-06-10T09:24:51;5.32;;;3.00;;
52494;SDS011;38405;53.212;5.660;2023-06-10T09:27:29;4.70;;;2.90;;
52494;SDS011;38405;53.212;5.660;2023-06-10T09:29:56;4.68;;;3.30;;
52494;SDS011;38405;53.212;5.660;2023-06-10T09:32:22;4.75;;;3.35;;
52494;SDS011;38405;53.212;5.660;2023-06-10T09:34:50;4.53;;;3.15;;
52494;SDS011;38405;53.212;5.660;2023-06-10T09:37:22;5.03;;;3.08;;
52494;SDS011;38405;53.212;5.660;2023-06-10T09:40:02;5.57;;;3.15;;
52494;SDS011;38405;53.212;5.660;2023-06-10T09:44:58;7.97;;;2.92;;
52494;SDS011;38405;53.212;5.660;2023-06-10T09:47:23;7.18;;;3.55;;
52494;SDS011;38405;53.212;5.660;2023-06-10T09:49:49;5.32;;;3.70;;
52494;SDS011;38405;53.212;5.660;2023-06-10T09:52:21;8.07;;;3.40;;
52494;SDS011;38405;53.212;5.660;2023-06-10T09:54:52;5.72;;;3.70;;
52494;SDS011;38405;53.212;5.660;2023-06-10T09:57:25;5.32;;;3.00;;
52494;SDS011;38405;53.212;5.660;2023-06-10T09:59:53;5.97;;;3.47;;
52494;SDS011;38405;53.212;5.660;2023-06-10T10:02:20;5.82;;;3.67;;
52494;SDS011;38405;53.212;5.660;2023-06-10T10:04:46;5.30;;;3.50;;
52494;SDS011;38405;53.212;5.660;2023-06-10T10:07:12;6.55;;;3.40;;
52494;SDS011;38405;53.212;5.660;2023-06-10T10:09:38;5.70;;;3.35;;
52494;SDS011;38405;53.212;5.660;2023-06-10T10:14:38;6.65;;;3.60;;
52494;SDS011;38405;53.212;5.660;2023-06-10T10:17:09;7.22;;;3.30;;
52494;SDS011;38405;53.212;5.660;2023-06-10T10:19:43;7.28;;;3.90;;
52494;SDS011;38405;53.212;5.660;2023-06-10T10:22:26;6.85;;;3.42;;
52494;SDS011;38405;53.212;5.660;2023-06-10T10:24:59;5.72;;;3.58;;
52494;SDS011;38405;53.212;5.660;2023-06-10T10:27:28;5.63;;;3.40;;
52494;SDS011;38405;53.212;5.660;2023-06-10T10:32:32;4.05;;;3.30;;
52494;SDS011;38405;53.212;5.660;2023-06-10T10:35:04;5.20;;;3.08;;
52494;SDS011;38405;53.212;5.660;2023-06-10T10:37:34;7.00;;;3.22;;
52494;SDS011;38405;53.212;5.660;2023-06-10T10:40:01;6.22;;;3.30;;
52494;SDS011;38405;53.212;5.660;2023-06-10T10:42:29;7.47;;;3.55;;
52494;SDS011;38405;53.212;5.660;2023-06-10T10:44:55;6.30;;;3.53;;
52494;SDS011;38405;53.212;5.660;2023-06-10T10:47:21;9.70;;;3.30;;
52494;SDS011;38405;53.212;5.660;2023-06-10T10:49:50;6.47;;;3.20;;
52494;SDS011;38405;53.212;5.660;2023-06-10T10:52:18;7.05;;;3.40;;
52494;SDS011;38405;53.212;5.660;2023-06-10T10:54:45;3.30;;;3.00;;
52494;SDS011;38405;53.212;5.660;2023-06-10T10:57:18;3.92;;;2.97;;
52494;SDS011;38405;53.212;5.660;2023-06-10T11:04:59;7.05;;;3.05;;
52494;SDS011;38405;53.212;5.660;2023-06-10T11:07:25;4.93;;;3.13;;
52494;SDS011;38405;53.212;5.660;2023-06-10T11:12:33;4.05;;;2.60;;
52494;SDS011;38405;53.212;5.660;2023-06-10T11:15:10;6.50;;;3.20;;
52494;SDS011;38405;53.212;5.660;2023-06-10T11:17:36;7.80;;;2.92;;
52494;SDS011;38405;53.212;5.660;2023-06-10T11:20:02;5.38;;;2.97;;
52494;SDS011;38405;53.212;5.660;2023-06-10T11:22:28;5.07;;;2.83;;
52494;SDS011;38405;53.212;5.660;2023-06-10T11:24:54;5.60;;;2.55;;
52494;SDS011;38405;53.212;5.660;2023-06-10T11:27:23;16.00;;;2.90;;
52494;SDS011;38405;53.212;5.660;2023-06-10T11:30:17;7.30;;;3.28;;
52494;SDS011;38405;53.212;5.660;2023-06-10T11:32:50;6.22;;;3.17;;
52494;SDS011;38405;53.212;5.660;2023-06-10T11:35:18;4.60;;;2.58;;
52494;SDS011;38405;53.212;5.660;2023-06-10T11:37:44;5.30;;;2.60;;
52494;SDS011;38405;53.212;5.660;2023-06-10T11:40:10;3.60;;;2.63;;
52494;SDS011;38405;53.212;5.660;2023-06-10T11:42:40;5.38;;;2.60;;
52494;SDS011;38405;53.212;5.660;2023-06-10T11:45:07;5.68;;;2.90;;
52494;SDS011;38405;53.212;5.660;2023-06-10T11:47:33;8.30;;;3.42;;
52494;SDS011;38405;53.212;5.660;2023-06-10T11:49:59;6.07;;;3.58;;
52494;SDS011;38405;53.212;5.660;2023-06-10T11:52:31;6.93;;;3.00;;
52494;SDS011;38405;53.212;5.660;2023-06-10T11:54:58;5.05;;;2.90;;
52494;SDS011;38405;53.212;5.660;2023-06-10T11:57:24;4.65;;;2.88;;
52494;SDS011;38405;53.212;5.660;2023-06-10T11:59:50;8.80;;;3.83;;
52494;SDS011;38405;53.212;5.660;2023-06-10T12:02:16;6.72;;;2.75;;
52494;SDS011;38405;53.212;5.660;2023-06-10T12:04:42;5.85;;;2.83;;
52494;SDS011;38405;53.212;5.660;2023-06-10T12:07:21;8.63;;;3.42;;
52494;SDS011;38405;53.212;5.660;2023-06-10T12:09:49;9.23;;;3.90;;
52494;SDS011;38405;53.212;5.660;2023-06-10T12:12:24;7.35;;;3.45;;
52494;SDS011;38405;53.212;5.660;2023-06-10T12:14:51;9.77;;;3.47;;
52494;SDS011;38405;53.212;5.660;2023-06-10T12:17:22;5.72;;;3.20;;
52494;SDS011;38405;53.212;5.660;2023-06-10T12:20:02;5.88;;;3.47;;
52494;SDS011;38405;53.212;5.660;2023-06-10T12:22:36;6.68;;;4.15;;
52494;SDS011;38405;53.212;5.660;2023-06-10T12:25:03;6.85;;;3.60;;
52494;SDS011;38405;53.212;5.660;2023-06-10T12:27:31;11.07;;;3.97;;
52494;SDS011;38405;53.212;5.660;2023-06-10T12:29:59;11.25;;;3.83;;
52494;SDS011;38405;53.212;5.660;2023-06-10T12:32:43;11.40;;;4.70;;
52494;SDS011;38405;53.212;5.660;2023-06-10T12:35:15;11.32;;;4.38;;
52494;SDS011;38405;53.212;5.660;2023-06-10T12:40:25;6.18;;;3.90;;
52494;SDS011;38405;53.212;5.660;2023-06-10T12:42:53;7.97;;;3.70;;
52494;SDS011;38405;53.212;5.660;2023-06-10T12:48:21;11.75;;;4.20;;
52494;SDS011;38405;53.212;5.660;2023-06-10T12:50:54;7.00;;;3.95;;
52494;SDS011;38405;53.212;5.660;2023-06-10T12:53:21;8.82;;;3.70;;
52494;SDS011;38405;53.212;5.660;2023-06-10T12:55:49;10.27;;;3.97;;
52494;SDS011;38405;53.212;5.660;2023-06-10T12:58:15;9.15;;;3.72;;
52494;SDS011;38405;53.212;5.660;2023-06-10T13:00:41;9.75;;;4.53;;
52494;SDS011;38405;53.212;5.660;2023-06-10T13:03:08;13.10;;;4.25;;
52494;SDS011;38405;53.212;5.660;2023-06-10T13:05:35;7.88;;;4.50;;
52494;SDS011;38405;53.212;5.660;2023-06-10T13:08:03;8.23;;;4.00;;
52494;SDS011;38405;53.212;5.660;2023-06-10T13:10:32;9.65;;;4.03;;
52494;SDS011;38405;53.212;5.660;2023-06-10T13:13:00;10.90;;;4.47;;
52494;SDS011;38405;53.212;5.660;2023-06-10T13:15:30;16.10;;;4.85;;
52494;SDS011;38405;53.212;5.660;2023-06-10T13:17:57;7.55;;;4.28;;
52494;SDS011;38405;53.212;5.660;2023-06-10T13:20:23;11.30;;;4.57;;
52494;SDS011;38405;53.212;5.660;2023-06-10T13:22:49;13.15;;;4.82;;
52494;SDS011;38405;53.212;5.660;2023-06-10T13:25:21;11.27;;;4.28;;
52494;SDS011;38405;53.212;5.660;2023-06-10T13:30:13;12.25;;;4.60;;
52494;SDS011;38405;53.212;5.660;2023-06-10T13:32:39;9.88;;;3.88;;
52494;SDS011;38405;53.212;5.660;2023-06-10T13:35:05;10.77;;;4.32;;
52494;SDS011;38405;53.212;5.660;2023-06-10T13:37:32;9.18;;;4.53;;
52494;SDS011;38405;53.212;5.660;2023-06-10T13:39:58;12.05;;;4.63;;
52494;SDS011;38405;53.212;5.660;2023-06-10T13:42:24;10.25;;;4.70;;
52494;SDS011;38405;53.212;5.660;2023-06-10T13:44:51;19.65;;;4.30;;
52494;SDS011;38405;53.212;5.660;2023-06-10T13:47:17;12.10;;;4.60;;
52494;SDS011;38405;53.212;5.660;2023-06-10T13:49:42;8.82;;;4.40;;
52494;SDS011;38405;53.212;5.660;2023-06-10T13:52:08;9.13;;;4.25;;
52494;SDS011;38405;53.212;5.660;2023-06-10T13:54:34;11.55;;;4.40;;
52494;SDS011;38405;53.212;5.660;2023-06-10T13:57:01;10.95;;;4.28;;
52494;SDS011;38405;53.212;5.660;2023-06-10T13:59:27;12.05;;;4.13;;
52494;SDS011;38405;53.212;5.660;2023-06-10T14:01:53;9.80;;;3.95;;
52494;SDS011;38405;53.212;5.660;2023-06-10T14:04:18;9.40;;;3.97;;
52494;SDS011;38405;53.212;5.660;2023-06-10T14:06:44;9.98;;;4.22;;
52494;SDS011;38405;53.212;5.660;2023-06-10T14:09:10;13.40;;;4.40;;
52494;SDS011;38405;53.212;5.660;2023-06-10T14:11:37;9.93;;;4.32;;
52494;SDS011;38405;53.212;5.660;2023-06-10T14:14:03;14.02;;;4.00;;
52494;SDS011;38405;53.212;5.660;2023-06-10T14:16:29;12.55;;;3.83;;
52494;SDS011;38405;53.212;5.660;2023-06-10T14:18:54;9.68;;;3.95;;
52494;SDS011;38405;53.212;5.660;2023-06-10T14:21:20;10.20;;;3.60;;
52494;SDS011;38405;53.212;5.660;2023-06-10T14:23:46;12.13;;;3.88;;
52494;SDS011;38405;53.212;5.660;2023-06-10T14:26:13;10.45;;;3.72;;
52494;SDS011;38405;53.212;5.660;2023-06-10T14:28:39;13.38;;;4.00;;
52494;SDS011;38405;53.212;5.660;2023-06-10T14:31:05;11.10;;;4.03;;
52494;SDS011;38405;53.212;5.660;2023-06-10T14:33:30;11.20;;;4.88;;
52494;SDS011;38405;53.212;5.660;2023-06-10T14:35:56;13.70;;;3.88;;
52494;SDS011;38405;53.212;5.660;2023-06-10T14:38:22;11.07;;;4.20;;
52494;SDS011;38405;53.212;5.660;2023-06-10T14:40:48;8.57;;;3.78;;
52494;SDS011;38405;53.212;5.660;2023-06-10T14:43:14;8.07;;;3.53;;
52494;SDS011;38405;53.212;5.660;2023-06-10T14:45:40;11.02;;;3.80;;
52494;SDS011;38405;53.212;5.660;2023-06-10T14:48:06;7.82;;;3.58;;
52494;SDS011;38405;53.212;5.660;2023-06-10T14:50:32;13.18;;;3.95;;
52494;SDS011;38405;53.212;5.660;2023-06-10T14:52:59;8.13;;;3.50;;
52494;SDS011;38405;53.212;5.660;2023-06-10T14:55:25;10.30;;;3.42;;
52494;SDS011;38405;53.212;5.660;2023-06-10T14:57:51;10.77;;;3.60;;
52494;SDS011;38405;53.212;5.660;2023-06-10T15:00:16;8.63;;;3.35;;
52494;SDS011;38405;53.212;5.660;2023-06-10T15:02:45;8.48;;;3.30;;
52494;SDS011;38405;53.212;5.660;2023-06-10T15:05:14;12.50;;;3.72;;
52494;SDS011;38405;53.212;5.660;2023-06-10T15:07:43;8.73;;;3.58;;
52494;SDS011;38405;53.212;5.660;2023-06-10T15:10:09;10.48;;;3.63;;
52494;SDS011;38405;53.212;5.660;2023-06-10T15:12:35;11.90;;;3.63;;
52494;SDS011;38405;53.212;5.660;2023-06-10T15:15:01;11.60;;;4.22;;
52494;SDS011;38405;53.212;5.660;2023-06-10T15:17:30;8.07;;;3.75;;